createdAt,value
2022-09-12T00:03:54.858Z,11.10
2022-09-12T00:06:32.793Z,11.10
2022-09-12T00:09:05.303Z,11.10
2022-09-12T00:11:32.695Z,11.00
2022-09-12T00:14:02.094Z,10.90
2022-09-12T00:16:38.303Z,10.80
2022-09-12T00:19:07.182Z,10.70
2022-09-12T00:21:37.232Z,10.60
2022-09-12T00:24:05.598Z,10.60
2022-09-12T00:26:33.444Z,10.60
2022-09-12T00:29:00.887Z,10.60
2022-09-12T00:31:28.698Z,10.50
2022-09-12T00:34:02.249Z,10.50
2022-09-12T00:36:30.687Z,10.40
2022-09-12T00:38:58.828Z,10.40
2022-09-12T00:41:34.178Z,10.40
2022-09-12T00:44:21.500Z,10.40
2022-09-12T00:46:48.726Z,10.40
2022-09-12T00:49:25.063Z,10.40
2022-09-12T00:52:10.424Z,10.40
2022-09-12T00:54:56.162Z,10.40
2022-09-12T00:57:29.889Z,10.30
2022-09-12T01:00:14.708Z,10.20
2022-09-12T01:02:45.184Z,10.10
2022-09-12T01:05:13.975Z,10.00
2022-09-12T01:07:42.126Z,9.90
2022-09-12T01:10:11.297Z,9.80
2022-09-12T01:12:41.248Z,9.70
2022-09-12T01:15:10.662Z,9.70
2022-09-12T01:17:56.524Z,9.60
2022-09-12T01:20:30.178Z,9.60
2022-09-12T01:23:20.540Z,9.60
2022-09-12T01:26:06.783Z,9.50
2022-09-12T01:29:07.483Z,9.60
2022-09-12T01:31:52.444Z,9.60
2022-09-12T01:34:29.798Z,9.70
2022-09-12T01:37:26.666Z,9.70
2022-09-12T01:40:31.756Z,9.70
2022-09-12T01:43:21.462Z,9.60
2022-09-12T01:46:25.159Z,9.60
2022-09-12T01:49:04.493Z,9.50
2022-09-12T01:51:40.246Z,9.50
2022-09-12T01:54:19.830Z,9.40
2022-09-12T01:56:55.807Z,9.40
2022-09-12T01:59:36.580Z,9.40
2022-09-12T02:02:25.950Z,9.40
2022-09-12T02:05:27.101Z,9.30
2022-09-12T02:08:28.692Z,9.20
2022-09-12T02:11:10.325Z,9.10
2022-09-12T02:13:52.782Z,9.10
2022-09-12T02:16:31.787Z,9.10
2022-09-12T02:19:08.225Z,9.10
2022-09-12T02:21:38.920Z,9.00
2022-09-12T02:24:10.384Z,9.10
2022-09-12T02:26:55.320Z,9.10
2022-09-12T02:29:23.162Z,9.10
2022-09-12T02:32:26.758Z,9.20
2022-09-12T02:35:09.107Z,9.20
2022-09-12T02:37:54.287Z,9.20
2022-09-12T02:40:23.160Z,9.20
2022-09-12T02:42:51.401Z,9.20
2022-09-12T02:45:19.447Z,9.20
2022-09-12T02:47:57.414Z,9.20
2022-09-12T02:50:25.553Z,9.20
2022-09-12T02:52:55.864Z,9.30
2022-09-12T02:55:25.338Z,9.20
2022-09-12T02:57:53.067Z,9.30
2022-09-12T03:00:20.922Z,9.30
2022-09-12T03:02:53.960Z,9.30
2022-09-12T03:05:33.424Z,9.30
2022-09-12T03:08:38.996Z,9.40
2022-09-12T03:11:25.304Z,9.30
2022-09-12T03:16:54.206Z,9.30
2022-09-12T03:20:12.312Z,9.20
2022-09-12T03:23:02.188Z,9.10
2022-09-12T03:25:37.183Z,9.10
2022-09-12T03:28:16.194Z,9.10
2022-09-12T03:30:46.906Z,9.10
2022-09-12T03:33:17.068Z,9.10
2022-09-12T03:35:45.814Z,9.10
2022-09-12T03:38:13.790Z,9.00
2022-09-12T03:40:41.577Z,9.00
2022-09-12T03:43:10.556Z,9.00
2022-09-12T03:45:48.095Z,9.00
2022-09-12T03:48:15.393Z,9.00
2022-09-12T03:50:42.754Z,9.00
2022-09-12T03:53:12.969Z,9.00
2022-09-12T03:55:42.730Z,9.00
2022-09-12T03:58:10.092Z,9.00
2022-09-12T04:00:40.322Z,8.90
2022-09-12T04:03:07.791Z,8.90
2022-09-12T04:05:36.779Z,8.90
2022-09-12T04:08:04.313Z,8.80
2022-09-12T04:10:32.413Z,8.80
2022-09-12T04:12:59.887Z,8.80
2022-09-12T04:15:27.439Z,8.70
2022-09-12T04:17:54.870Z,8.70
2022-09-12T04:20:22.409Z,8.70
2022-09-12T04:22:49.784Z,8.70
2022-09-12T04:25:17.497Z,8.70
2022-09-12T04:27:45.498Z,8.70
2022-09-12T04:30:13.511Z,8.60
2022-09-12T04:32:41.730Z,8.50
2022-09-12T04:35:09.358Z,8.40
2022-09-12T04:37:36.698Z,8.30
2022-09-12T04:40:04.653Z,8.20
2022-09-12T04:42:32.298Z,8.20
2022-09-12T04:44:59.631Z,8.10
2022-09-12T04:47:26.978Z,8.10
2022-09-12T04:49:54.670Z,8.20
2022-09-12T04:52:22.166Z,8.20
2022-09-12T04:54:49.567Z,8.30
2022-09-12T04:57:20.234Z,8.30
2022-09-12T04:59:47.757Z,8.40
2022-09-12T05:02:15.347Z,8.50
2022-09-12T05:04:43.016Z,8.50
2022-09-12T05:09:38.444Z,8.60
2022-09-12T05:14:35.424Z,8.60
2022-09-12T05:17:06.177Z,8.50
2022-09-12T05:19:33.852Z,8.60
2022-09-12T05:22:01.404Z,8.60
2022-09-12T05:24:29.195Z,8.60
2022-09-12T05:26:57.086Z,8.60
2022-09-12T05:29:25.380Z,8.60
2022-09-12T05:31:53.059Z,8.80
2022-09-12T05:34:21.465Z,8.80
2022-09-12T05:36:49.992Z,8.90
2022-09-12T05:39:18.727Z,9.00
2022-09-12T05:41:46.127Z,9.20
2022-09-12T05:44:15.128Z,9.30
2022-09-12T05:46:51.426Z,9.50
2022-09-12T05:49:19.482Z,9.50
2022-09-12T05:51:47.022Z,9.60
2022-09-12T05:54:19.664Z,9.80
2022-09-12T05:56:48.556Z,9.90
2022-09-12T05:59:19.166Z,10.00
2022-09-12T06:01:47.312Z,10.10
2022-09-12T06:04:15.064Z,10.30
2022-09-12T06:06:47.516Z,10.40
2022-09-12T06:09:16.956Z,10.60
2022-09-12T06:11:46.355Z,10.70
2022-09-12T06:14:16.960Z,10.90
2022-09-12T06:16:44.871Z,11.00
2022-09-12T06:19:27.795Z,11.10
2022-09-12T06:21:55.513Z,11.40
2022-09-12T06:24:23.085Z,11.60
2022-09-12T06:26:52.999Z,11.70
2022-09-12T06:29:20.540Z,11.90
2022-09-12T06:31:48.000Z,12.10
2022-09-12T06:34:16.742Z,12.30
2022-09-12T06:36:47.812Z,12.50
2022-09-12T06:39:18.978Z,12.70
2022-09-12T06:41:50.055Z,12.90
2022-09-12T06:44:21.090Z,13.10
2022-09-12T06:46:49.527Z,13.20
2022-09-12T06:49:18.913Z,13.40
2022-09-12T06:51:48.591Z,13.60
2022-09-12T06:54:19.429Z,13.70
2022-09-12T06:56:49.462Z,13.90
2022-09-12T06:59:21.146Z,14.10
2022-09-12T07:01:48.710Z,14.30
2022-09-12T07:04:18.605Z,14.60
2022-09-12T07:06:55.889Z,14.70
2022-09-12T07:09:26.735Z,14.90
2022-09-12T07:12:00.239Z,15.10
2022-09-12T07:14:30.670Z,15.20
2022-09-12T07:17:02.681Z,15.40
2022-09-12T07:19:30.410Z,15.60
2022-09-12T07:22:12.665Z,15.70
2022-09-12T07:24:43.124Z,15.80
2022-09-12T07:27:25.133Z,16.00
2022-09-12T07:29:57.512Z,16.20
2022-09-12T07:32:38.718Z,16.30
2022-09-12T07:35:18.269Z,16.50
2022-09-12T07:37:48.450Z,16.70
2022-09-12T07:40:24.564Z,16.90
2022-09-12T07:43:08.261Z,17.00
2022-09-12T07:45:46.634Z,17.10
2022-09-12T07:51:14.908Z,17.30
2022-09-12T07:53:59.239Z,17.50
2022-09-12T07:56:39.183Z,17.60
2022-09-12T07:59:52.465Z,17.80
2022-09-12T08:02:53.211Z,18.10
2022-09-12T08:05:23.398Z,18.50
2022-09-12T08:07:57.676Z,18.80
2022-09-12T08:10:55.793Z,19.10
2022-09-12T08:14:23.070Z,19.40
2022-09-12T08:17:05.493Z,19.50
2022-09-12T08:20:03.767Z,19.90
2022-09-12T08:22:46.261Z,20.20
2022-09-12T08:25:19.609Z,20.60
2022-09-12T08:28:58.985Z,20.90
2022-09-12T08:31:48.936Z,21.40
2022-09-12T08:34:29.134Z,21.70
2022-09-12T08:37:14.357Z,21.90
2022-09-12T08:39:48.036Z,22.30
2022-09-12T08:43:07.723Z,22.60
2022-09-12T08:50:49.978Z,22.80
2022-09-12T08:53:44.827Z,22.90
2022-09-12T09:01:36.135Z,22.90
2022-09-12T09:04:30.991Z,23.40
2022-09-12T09:07:54.010Z,23.80
2022-09-12T09:10:47.668Z,24.30
2022-09-12T09:13:51.893Z,25.00
2022-09-12T09:16:45.505Z,25.50
2022-09-12T09:19:50.123Z,26.00
2022-09-12T09:23:09.629Z,26.40
2022-09-12T09:26:38.312Z,26.70
2022-09-12T09:39:08.651Z,27.70
2022-09-12T09:43:19.721Z,27.50
2022-09-12T09:46:07.122Z,27.50
2022-09-12T09:48:56.810Z,27.80
2022-09-12T09:51:49.203Z,28.20
2022-09-12T09:55:01.161Z,28.70
2022-09-12T10:01:28.005Z,29.60
2022-09-12T10:04:51.832Z,29.60
2022-09-12T10:07:34.818Z,29.60
2022-09-12T10:10:50.690Z,29.10
2022-09-12T10:14:04.696Z,29.00
2022-09-12T10:17:03.723Z,28.80
2022-09-12T10:19:59.872Z,28.70
2022-09-12T10:22:54.644Z,28.90
2022-09-12T15:31:03.633Z,28.40
2022-09-12T15:33:30.993Z,28.40
2022-09-12T15:35:58.526Z,27.70
2022-09-12T15:38:26.838Z,27.00
2022-09-12T15:40:54.993Z,26.50
2022-09-12T15:43:23.693Z,26.10
2022-09-12T15:45:52.524Z,25.80
2022-09-12T15:48:21.289Z,25.60
2022-09-12T15:50:49.276Z,25.50
2022-09-12T15:53:17.813Z,25.40
2022-09-12T15:55:45.839Z,25.40
2022-09-12T15:58:13.398Z,25.40
2022-09-12T16:00:41.618Z,25.30
2022-09-12T16:03:24.864Z,25.30
2022-09-12T16:06:03.675Z,25.30
2022-09-12T16:08:32.320Z,25.30
2022-09-12T16:11:16.558Z,25.30
2022-09-12T16:13:45.044Z,25.30
2022-09-12T16:16:12.363Z,25.30
2022-09-12T16:18:43.169Z,25.10
2022-09-12T16:21:14.875Z,25.00
2022-09-12T16:23:44.922Z,24.80
2022-09-12T16:26:12.530Z,24.60
2022-09-12T16:28:40.503Z,24.40
2022-09-12T16:31:10.516Z,24.20
2022-09-12T16:33:39.585Z,23.90
2022-09-12T16:36:14.071Z,23.70
2022-09-12T16:38:48.939Z,23.50
2022-09-12T16:41:19.027Z,23.30
2022-09-12T16:43:47.024Z,23.10
2022-09-12T16:46:23.404Z,23.00
2022-09-12T16:48:54.255Z,22.80
2022-09-12T16:51:24.243Z,22.60
2022-09-12T16:53:52.254Z,22.50
2022-09-12T16:56:20.100Z,22.40
2022-09-12T16:58:48.998Z,22.30
2022-09-12T17:01:21.940Z,22.20
2022-09-12T17:03:56.707Z,22.20
2022-09-12T17:06:25.934Z,22.00
2022-09-12T17:08:55.816Z,21.90
2022-09-12T17:11:31.269Z,21.80
2022-09-12T17:14:06.233Z,21.60
2022-09-12T17:16:38.344Z,21.60
2022-09-12T17:19:07.146Z,21.40
2022-09-12T17:21:35.627Z,21.30
2022-09-12T17:24:03.766Z,21.10
2022-09-12T17:26:31.155Z,21.00
2022-09-12T17:28:58.547Z,20.80
2022-09-12T17:31:26.826Z,20.60
2022-09-12T17:33:59.662Z,20.50
2022-09-12T17:36:28.888Z,20.20
2022-09-12T17:38:56.298Z,20.00
2022-09-12T17:41:27.739Z,19.90
2022-09-12T17:43:57.456Z,19.70
2022-09-12T17:46:32.017Z,19.50
2022-09-12T17:49:01.083Z,19.40
2022-09-12T17:51:31.337Z,19.20
2022-09-12T17:54:10.546Z,19.00
2022-09-12T17:56:39.217Z,18.70
2022-09-12T17:59:08.930Z,18.60
2022-09-12T18:01:55.206Z,18.40
2022-09-12T18:04:22.761Z,18.30
2022-09-12T18:06:50.454Z,18.10
2022-09-12T18:09:21.752Z,18.00
2022-09-12T18:11:49.597Z,17.90
2022-09-12T18:14:18.054Z,17.80
2022-09-12T18:16:46.724Z,17.70
2022-09-12T18:19:14.951Z,17.60
2022-09-12T18:21:42.489Z,17.50
2022-09-12T18:24:11.448Z,17.40
2022-09-12T18:26:39.118Z,17.30
2022-09-12T18:29:06.977Z,17.10
2022-09-12T18:31:34.677Z,16.90
2022-09-12T18:34:06.415Z,16.80
2022-09-12T18:36:33.942Z,16.70
2022-09-12T18:39:01.565Z,16.70
2022-09-12T18:41:29.230Z,16.60
2022-09-12T18:44:01.442Z,16.60
2022-09-12T18:46:31.249Z,16.50
2022-09-12T18:49:00.143Z,16.50
2022-09-12T18:51:31.824Z,16.50
2022-09-12T18:54:03.209Z,16.40
2022-09-12T18:56:33.123Z,16.30
2022-09-12T18:59:02.554Z,16.20
2022-09-12T19:01:34.137Z,16.10
2022-09-12T19:04:04.901Z,16.00
2022-09-12T19:06:39.840Z,15.90
2022-09-12T19:09:09.670Z,15.90
2022-09-12T19:11:50.135Z,15.90
2022-09-12T19:14:24.915Z,15.80
2022-09-12T19:16:53.680Z,15.70
2022-09-12T19:19:21.719Z,15.70
2022-09-12T19:21:49.205Z,15.60
2022-09-12T19:24:21.946Z,15.60
2022-09-12T19:26:50.895Z,15.50
2022-09-12T19:29:19.193Z,15.50
2022-09-12T19:31:47.205Z,15.60
2022-09-12T19:34:15.186Z,15.60
2022-09-12T19:36:46.927Z,15.60
2022-09-12T19:39:17.012Z,15.60
2022-09-12T19:41:45.141Z,15.50
2022-09-12T19:44:12.870Z,15.40
2022-09-12T19:46:40.623Z,15.30
2022-09-12T19:49:09.688Z,15.10
2022-09-12T19:51:37.280Z,15.00
2022-09-12T19:54:04.826Z,14.80
2022-09-12T19:56:32.321Z,14.60
2022-09-12T19:58:59.922Z,14.50
2022-09-12T20:01:28.895Z,14.40
2022-09-12T20:04:00.146Z,14.40
2022-09-12T20:06:30.782Z,14.30
2022-09-12T20:08:58.907Z,14.30
2022-09-12T20:11:26.438Z,14.30
2022-09-12T20:13:54.185Z,14.40
2022-09-12T20:16:25.725Z,14.50
2022-09-12T20:18:56.865Z,14.40
2022-09-12T20:21:32.109Z,14.50
2022-09-12T20:24:06.864Z,14.40
2022-09-12T20:26:35.262Z,14.30
2022-09-12T20:29:05.093Z,14.10
2022-09-12T20:31:33.881Z,13.90
2022-09-12T20:34:01.463Z,13.90
2022-09-12T20:36:29.532Z,13.80
2022-09-12T20:39:01.509Z,13.70
2022-09-12T20:41:36.212Z,13.70
2022-09-12T20:44:04.092Z,13.70
2022-09-12T20:46:34.590Z,13.70
2022-09-12T20:49:02.470Z,13.60
2022-09-12T20:51:30.665Z,13.40
